sensor_id;sensor_type;location;lat;lon;timestamp;pressure;altitude;pressure_sealevel;temperature;humidity
60087;BME280;45960;53.630;55.972;2022-10-16T00:00:44;101031.91;;;8.97;67.39
60087;BME280;45960;53.630;55.972;2022-10-16T00:01:46;101030.94;;;8.98;67.49
60087;BME280;45960;53.630;55.972;2022-10-16T00:02:47;101029.13;;;8.99;67.48
60087;BME280;45960;53.630;55.972;2022-10-16T00:03:49;101030.28;;;8.93;67.42
60087;BME280;45960;53.630;55.972;2022-10-16T00:04:50;101023.03;;;8.96;67.38
60087;BME280;45960;53.630;55.972;2022-10-16T00:05:51;101029.13;;;8.99;67.31
60087;BME280;45960;53.630;55.972;2022-10-16T00:06:52;101031.75;;;9.00;67.18
60087;BME280;45960;53.630;55.972;2022-10-16T00:07:53;101012.59;;;8.92;67.35
60087;BME280;45960;53.630;55.972;2022-10-16T00:08:55;101028.22;;;9.00;67.40
60087;BME280;45960;53.630;55.972;2022-10-16T00:09:56;101033.47;;;9.01;67.40
60087;BME280;45960;53.630;55.972;2022-10-16T00:11:03;101033.56;;;9.00;67.32
60087;BME280;45960;53.630;55.972;2022-10-16T00:12:04;101029.88;;;9.02;67.33
60087;BME280;45960;53.630;55.972;2022-10-16T00:13:07;101031.75;;;9.00;67.29
60087;BME280;45960;53.630;55.972;2022-10-16T00:14:11;101038.03;;;8.99;67.38
60087;BME280;45960;53.630;55.972;2022-10-16T00:15:13;101021.53;;;8.91;67.35
60087;BME280;45960;53.630;55.972;2022-10-16T00:16:15;101035.38;;;8.99;67.35
60087;BME280;45960;53.630;55.972;2022-10-16T00:17:17;101034.47;;;8.99;67.43
60087;BME280;45960;53.630;55.972;2022-10-16T00:18:18;101035.38;;;8.99;67.33
60087;BME280;45960;53.630;55.972;2022-10-16T00:19:19;101038.94;;;8.98;67.41
60087;BME280;45960;53.630;55.972;2022-10-16T00:20:20;101038.94;;;8.98;67.35
60087;BME280;45960;53.630;55.972;2022-10-16T00:21:39;101032.25;;;8.89;67.60
60087;BME280;45960;53.630;55.972;2022-10-16T00:22:59;101026.63;;;8.77;67.66
60087;BME280;45960;53.630;55.972;2022-10-16T00:24:03;101037.78;;;8.85;67.72
60087;BME280;45960;53.630;55.972;2022-10-16T00:25:05;101032.38;;;8.86;67.72
60087;BME280;45960;53.630;55.972;2022-10-16T00:26:08;101045.56;;;8.89;67.69
60087;BME280;45960;53.630;55.972;2022-10-16T00:27:10;101040.19;;;8.91;67.78
60087;BME280;45960;53.630;55.972;2022-10-16T00:28:11;101049.75;;;8.95;67.61
60087;BME280;45960;53.630;55.972;2022-10-16T00:29:12;101041.75;;;8.95;67.42
60087;BME280;45960;53.630;55.972;2022-10-16T00:30:13;101044.41;;;8.95;67.49
60087;BME280;45960;53.630;55.972;2022-10-16T00:31:15;101039.03;;;8.96;67.48
60087;BME280;45960;53.630;55.972;2022-10-16T00:32:17;101042.56;;;8.97;67.45
60087;BME280;45960;53.630;55.972;2022-10-16T00:33:19;101039.88;;;8.97;67.64
60087;BME280;45960;53.630;55.972;2022-10-16T00:34:20;101034.72;;;8.94;67.45
60087;BME280;45960;53.630;55.972;2022-10-16T00:35:21;101034.41;;;9.00;67.61
60087;BME280;45960;53.630;55.972;2022-10-16T00:36:24;101041.56;;;9.00;67.52
60087;BME280;45960;53.630;55.972;2022-10-16T00:37:26;101046.78;;;9.01;67.53
60087;BME280;45960;53.630;55.972;2022-10-16T00:38:27;101018.06;;;8.89;67.33
60087;BME280;45960;53.630;55.972;2022-10-16T00:39:28;101049.47;;;9.01;67.40
60087;BME280;45960;53.630;55.972;2022-10-16T00:40:29;101049.47;;;9.01;67.39
60087;BME280;45960;53.630;55.972;2022-10-16T00:41:31;101045.13;;;8.99;67.41
60087;BME280;45960;53.630;55.972;2022-10-16T00:42:32;101051.22;;;9.02;67.46
60087;BME280;45960;53.630;55.972;2022-10-16T00:43:40;101046.06;;;8.98;67.29
60087;BME280;45960;53.630;55.972;2022-10-16T00:45:45;101041.59;;;8.98;67.46
60087;BME280;45960;53.630;55.972;2022-10-16T00:46:46;101050.41;;;9.00;67.51
60087;BME280;45960;53.630;55.972;2022-10-16T00:47:49;101049.53;;;9.00;67.56
60087;BME280;45960;53.630;55.972;2022-10-16T00:50:30;101048.03;;;8.94;67.78
60087;BME280;45960;53.630;55.972;2022-10-16T00:51:40;101051.59;;;8.93;67.76
60087;BME280;45960;53.630;55.972;2022-10-16T00:52:45;101050.84;;;8.91;67.82
60087;BME280;45960;53.630;55.972;2022-10-16T00:53:48;101055.88;;;8.97;67.72
60087;BME280;45960;53.630;55.972;2022-10-16T00:54:50;101059.34;;;8.99;67.66
60087;BME280;45960;53.630;55.972;2022-10-16T00:55:53;101057.53;;;9.00;67.70
60087;BME280;45960;53.630;55.972;2022-10-16T00:56:57;101062.78;;;9.01;67.60
60087;BME280;45960;53.630;55.972;2022-10-16T00:57:59;101056.53;;;9.02;67.66
60087;BME280;45960;53.630;55.972;2022-10-16T00:59:03;101058.41;;;9.00;67.60
60087;BME280;45960;53.630;55.972;2022-10-16T01:00:10;101055.22;;;8.92;67.90
60087;BME280;45960;53.630;55.972;2022-10-16T01:01:12;101065.31;;;9.04;67.87
60087;BME280;45960;53.630;55.972;2022-10-16T01:02:16;101061.88;;;9.02;68.00
60087;BME280;45960;53.630;55.972;2022-10-16T01:03:32;101070.94;;;8.98;68.22
60087;BME280;45960;53.630;55.972;2022-10-16T01:04:48;101065.59;;;8.98;68.24
60087;BME280;45960;53.630;55.972;2022-10-16T01:07:37;101065.75;;;8.95;68.71
60087;BME280;45960;53.630;55.972;2022-10-16T01:10:28;101065.38;;;8.84;68.88
60087;BME280;45960;53.630;55.972;2022-10-16T01:11:45;101074.16;;;8.86;68.94
60087;BME280;45960;53.630;55.972;2022-10-16T01:12:50;101073.94;;;8.90;69.17
60087;BME280;45960;53.630;55.972;2022-10-16T01:13:56;101062.28;;;8.93;69.06
60087;BME280;45960;53.630;55.972;2022-10-16T01:15:08;101067.75;;;8.90;68.89
60087;BME280;45960;53.630;55.972;2022-10-16T01:16:24;101075.69;;;8.91;69.02
60087;BME280;45960;53.630;55.972;2022-10-16T01:17:37;101080.16;;;8.91;69.06
60087;BME280;45960;53.630;55.972;2022-10-16T01:18:57;101074.81;;;8.91;69.07
60087;BME280;45960;53.630;55.972;2022-10-16T01:21:16;101081.88;;;8.92;69.56
60087;BME280;45960;53.630;55.972;2022-10-16T01:22:23;101078.25;;;8.93;69.53
60087;BME280;45960;53.630;55.972;2022-10-16T01:24:49;101078.13;;;8.96;69.63
60087;BME280;45960;53.630;55.972;2022-10-16T01:25:58;101071.72;;;9.00;69.66
60087;BME280;45960;53.630;55.972;2022-10-16T01:28:27;101072.94;;;8.93;69.59
60087;BME280;45960;53.630;55.972;2022-10-16T01:29:52;101071.94;;;8.95;69.62
60087;BME280;45960;53.630;55.972;2022-10-16T01:30:58;101072.78;;;8.96;69.74
60087;BME280;45960;53.630;55.972;2022-10-16T01:32:05;101081.59;;;8.98;69.57
60087;BME280;45960;53.630;55.972;2022-10-16T01:33:29;101088.56;;;9.01;69.59
60087;BME280;45960;53.630;55.972;2022-10-16T01:34:37;101085.19;;;8.97;69.54
60087;BME280;45960;53.630;55.972;2022-10-16T01:35:47;101088.66;;;8.99;69.47
60087;BME280;45960;53.630;55.972;2022-10-16T01:36:55;101085.16;;;8.78;69.76
60087;BME280;45960;53.630;55.972;2022-10-16T01:38:22;101086.69;;;8.84;69.73
60087;BME280;45960;53.630;55.972;2022-10-16T01:39:30;101088.28;;;8.88;69.76
60087;BME280;45960;53.630;55.972;2022-10-16T01:40:34;101084.59;;;8.90;69.88
60087;BME280;45960;53.630;55.972;2022-10-16T01:41:46;101084.34;;;8.96;69.89
60087;BME280;45960;53.630;55.972;2022-10-16T01:43:15;101086.91;;;8.98;69.72
60087;BME280;45960;53.630;55.972;2022-10-16T01:44:22;101085.25;;;8.95;69.80
60087;BME280;45960;53.630;55.972;2022-10-16T01:45:28;101094.00;;;8.99;69.61
60087;BME280;45960;53.630;55.972;2022-10-16T01:46:32;101095.56;;;9.03;69.65
60087;BME280;45960;53.630;55.972;2022-10-16T01:47:35;101066.69;;;8.94;69.56
60087;BME280;45960;53.630;55.972;2022-10-16T01:48:38;101086.56;;;9.06;69.28
60087;BME280;45960;53.630;55.972;2022-10-16T01:49:41;101090.75;;;9.11;69.31
60087;BME280;45960;53.630;55.972;2022-10-16T01:50:48;101088.91;;;9.13;69.26
60087;BME280;45960;53.630;55.972;2022-10-16T01:51:54;101087.94;;;9.14;69.15
60087;BME280;45960;53.630;55.972;2022-10-16T01:52:57;101088.75;;;9.16;69.23
60087;BME280;45960;53.630;55.972;2022-10-16T01:54:00;101090.41;;;9.19;69.25
60087;BME280;45960;53.630;55.972;2022-10-16T01:55:04;101090.41;;;9.19;69.01
60087;BME280;45960;53.630;55.972;2022-10-16T01:56:09;101091.28;;;9.19;69.05
60087;BME280;45960;53.630;55.972;2022-10-16T01:57:13;101091.97;;;9.23;68.99
60087;BME280;45960;53.630;55.972;2022-10-16T01:58:15;101083.94;;;9.25;68.93
60087;BME280;45960;53.630;55.972;2022-10-16T01:59:18;101090.19;;;9.24;68.89
60087;BME280;45960;53.630;55.972;2022-10-16T02:00:22;101085.78;;;9.23;68.91
60087;BME280;45960;53.630;55.972;2022-10-16T02:01:26;101087.50;;;9.24;68.89
60087;BME280;45960;53.630;55.972;2022-10-16T02:02:40;101093.78;;;9.23;68.95
60087;BME280;45960;53.630;55.972;2022-10-16T02:03:44;101092.84;;;9.24;68.83
60087;BME280;45960;53.630;55.972;2022-10-16T02:04:51;101092.69;;;9.27;68.79
60087;BME280;45960;53.630;55.972;2022-10-16T02:05:55;101092.84;;;9.24;68.70
60087;BME280;45960;53.630;55.972;2022-10-16T02:06:57;101082.97;;;9.26;68.69
60087;BME280;45960;53.630;55.972;2022-10-16T02:07:59;101095.31;;;9.28;68.82
60087;BME280;45960;53.630;55.972;2022-10-16T02:09:00;101084.63;;;9.28;68.79
60087;BME280;45960;53.630;55.972;2022-10-16T02:10:01;101086.34;;;9.29;68.85
60087;BME280;45960;53.630;55.972;2022-10-16T02:11:02;101082.31;;;9.21;68.68
60087;BME280;45960;53.630;55.972;2022-10-16T02:13:23;101097.41;;;9.22;68.59
60087;BME280;45960;53.630;55.972;2022-10-16T02:14:27;101091.94;;;9.25;68.73
60087;BME280;45960;53.630;55.972;2022-10-16T02:15:28;101085.00;;;9.21;68.59
60087;BME280;45960;53.630;55.972;2022-10-16T02:16:35;101100.69;;;9.27;68.48
60087;BME280;45960;53.630;55.972;2022-10-16T02:17:36;101091.28;;;9.19;68.59
60087;BME280;45960;53.630;55.972;2022-10-16T02:18:38;101097.03;;;9.29;68.52
60087;BME280;45960;53.630;55.972;2022-10-16T02:19:39;101101.34;;;9.32;68.56
60087;BME280;45960;53.630;55.972;2022-10-16T02:20:51;101094.44;;;9.28;68.32
60087;BME280;45960;53.630;55.972;2022-10-16T02:22:02;101107.78;;;9.28;68.44
60087;BME280;45960;53.630;55.972;2022-10-16T02:23:05;101106.97;;;9.26;68.48
60087;BME280;45960;53.630;55.972;2022-10-16T02:25:40;101120.50;;;9.21;68.56
60087;BME280;45960;53.630;55.972;2022-10-16T02:28:22;101115.41;;;9.16;68.57
60087;BME280;45960;53.630;55.972;2022-10-16T02:29:26;101110.78;;;9.20;68.74
60087;BME280;45960;53.630;55.972;2022-10-16T02:30:32;101114.31;;;9.21;68.56
60087;BME280;45960;53.630;55.972;2022-10-16T02:31:36;101121.41;;;9.22;68.63
60087;BME280;45960;53.630;55.972;2022-10-16T02:32:42;101095.13;;;9.12;68.42
60087;BME280;45960;53.630;55.972;2022-10-16T02:33:45;101114.03;;;9.27;68.44
60087;BME280;45960;53.630;55.972;2022-10-16T02:34:48;101115.78;;;9.28;68.28
60087;BME280;45960;53.630;55.972;2022-10-16T02:35:50;101113.88;;;9.30;68.35
60087;BME280;45960;53.630;55.972;2022-10-16T02:36:52;101114.03;;;9.27;68.33
60087;BME280;45960;53.630;55.972;2022-10-16T02:37:54;101115.78;;;9.28;68.19
60087;BME280;45960;53.630;55.972;2022-10-16T02:38:56;101119.22;;;9.30;68.19
60087;BME280;45960;53.630;55.972;2022-10-16T02:39:58;101115.63;;;9.31;68.13
60087;BME280;45960;53.630;55.972;2022-10-16T02:41:00;101120.00;;;9.32;68.24
60087;BME280;45960;53.630;55.972;2022-10-16T02:42:02;101118.22;;;9.32;68.27
60087;BME280;45960;53.630;55.972;2022-10-16T02:43:04;101128.75;;;9.35;68.20
60087;BME280;45960;53.630;55.972;2022-10-16T02:44:05;101122.53;;;9.35;68.28
60087;BME280;45960;53.630;55.972;2022-10-16T02:45:08;101118.16;;;9.34;68.26
60087;BME280;45960;53.630;55.972;2022-10-16T02:46:10;101117.16;;;9.36;68.24
60087;BME280;45960;53.630;55.972;2022-10-16T02:47:10;101123.34;;;9.37;68.25
60087;BME280;45960;53.630;55.972;2022-10-16T02:48:12;101127.72;;;9.38;68.22
60087;BME280;45960;53.630;55.972;2022-10-16T02:49:13;101126.72;;;9.40;68.17
60087;BME280;45960;53.630;55.972;2022-10-16T02:50:15;101126.72;;;9.40;68.08
60087;BME280;45960;53.630;55.972;2022-10-16T02:51:16;101129.31;;;9.42;68.18
60087;BME280;45960;53.630;55.972;2022-10-16T02:52:17;101115.47;;;9.34;68.26
60087;BME280;45960;53.630;55.972;2022-10-16T02:53:18;101124.78;;;9.44;68.29
60087;BME280;45960;53.630;55.972;2022-10-16T02:54:19;101124.16;;;9.39;68.10
60087;BME280;45960;53.630;55.972;2022-10-16T02:55:20;101131.91;;;9.44;68.08
60087;BME280;45960;53.630;55.972;2022-10-16T02:56:21;101139.84;;;9.45;68.00
60087;BME280;45960;53.630;55.972;2022-10-16T02:57:22;101135.47;;;9.44;68.02
60087;BME280;45960;53.630;55.972;2022-10-16T02:58:23;101124.78;;;9.44;68.02
60087;BME280;45960;53.630;55.972;2022-10-16T02:59:24;101126.50;;;9.45;68.07
60087;BME280;45960;53.630;55.972;2022-10-16T03:00:25;101126.50;;;9.45;68.25
60087;BME280;45960;53.630;55.972;2022-10-16T03:01:26;101141.56;;;9.46;68.17
60087;BME280;45960;53.630;55.972;2022-10-16T03:02:27;101130.84;;;9.48;68.14
60087;BME280;45960;53.630;55.972;2022-10-16T03:03:28;101138.00;;;9.47;68.09
60087;BME280;45960;53.630;55.972;2022-10-16T03:04:29;101138.00;;;9.47;68.10
60087;BME280;45960;53.630;55.972;2022-10-16T03:05:30;101133.81;;;9.41;68.16
60087;BME280;45960;53.630;55.972;2022-10-16T03:06:31;101136.22;;;9.46;68.25
60087;BME280;45960;53.630;55.972;2022-10-16T03:07:32;101137.13;;;9.47;68.31
60087;BME280;45960;53.630;55.972;2022-10-16T03:08:33;101145.03;;;9.48;68.38
60087;BME280;45960;53.630;55.972;2022-10-16T03:09:34;101145.03;;;9.48;68.56
60087;BME280;45960;53.630;55.972;2022-10-16T03:10:35;101146.75;;;9.49;68.65
60087;BME280;45960;53.630;55.972;2022-10-16T03:11:36;101148.50;;;9.50;68.71
60087;BME280;45960;53.630;55.972;2022-10-16T03:12:40;101138.00;;;9.47;68.58
60087;BME280;45960;53.630;55.972;2022-10-16T03:13:43;101149.38;;;9.51;68.81
60087;BME280;45960;53.630;55.972;2022-10-16T03:14:44;101146.66;;;9.52;68.85
60087;BME280;45960;53.630;55.972;2022-10-16T03:15:45;101148.41;;;9.52;69.12
60087;BME280;45960;53.630;55.972;2022-10-16T03:16:46;101141.41;;;9.49;69.12
60087;BME280;45960;53.630;55.972;2022-10-16T03:17:47;101138.84;;;9.48;69.19
60087;BME280;45960;53.630;55.972;2022-10-16T03:18:49;101144.25;;;9.46;69.24
60087;BME280;45960;53.630;55.972;2022-10-16T03:19:50;101150.09;;;9.54;69.26
60087;BME280;45960;53.630;55.972;2022-10-16T03:20:52;101152.69;;;9.56;69.32
60087;BME280;45960;53.630;55.972;2022-10-16T03:21:53;101153.56;;;9.56;69.31
60087;BME280;45960;53.630;55.972;2022-10-16T03:22:54;101148.22;;;9.56;69.38
60087;BME280;45960;53.630;55.972;2022-10-16T03:23:55;101150.88;;;9.56;69.52
60087;BME280;45960;53.630;55.972;2022-10-16T03:24:56;101164.22;;;9.56;69.55
60087;BME280;45960;53.630;55.972;2022-10-16T03:25:57;101148.41;;;9.52;69.49
60087;BME280;45960;53.630;55.972;2022-10-16T03:26:58;101160.59;;;9.57;69.51
60087;BME280;45960;53.630;55.972;2022-10-16T03:27:59;101155.28;;;9.57;69.54
60087;BME280;45960;53.630;55.972;2022-10-16T03:29:00;101158.75;;;9.59;69.54
60087;BME280;45960;53.630;55.972;2022-10-16T03:30:09;101166.09;;;9.54;69.68
60087;BME280;45960;53.630;55.972;2022-10-16T03:31:10;101167.69;;;9.58;69.75
60087;BME280;45960;53.630;55.972;2022-10-16T03:32:11;101119.97;;;9.33;69.75
60087;BME280;45960;53.630;55.972;2022-10-16T03:33:12;101164.88;;;9.61;69.92
60087;BME280;45960;53.630;55.972;2022-10-16T03:34:13;101152.75;;;9.54;69.92
60087;BME280;45960;53.630;55.972;2022-10-16T03:35:14;101155.88;;;9.64;69.94
60087;BME280;45960;53.630;55.972;2022-10-16T03:36:15;101163.00;;;9.63;69.96
60087;BME280;45960;53.630;55.972;2022-10-16T03:37:22;101148.50;;;9.50;69.82
60087;BME280;45960;53.630;55.972;2022-10-16T03:38:29;101173.75;;;9.62;70.10
60087;BME280;45960;53.630;55.972;2022-10-16T03:39:35;101171.13;;;9.60;70.13
60087;BME280;45960;53.630;55.972;2022-10-16T03:40:40;101165.69;;;9.63;70.39
60087;BME280;45960;53.630;55.972;2022-10-16T03:41:43;101168.34;;;9.63;70.34
60087;BME280;45960;53.630;55.972;2022-10-16T03:42:44;101170.88;;;9.67;70.48
60087;BME280;45960;53.630;55.972;2022-10-16T03:43:45;101160.19;;;9.67;70.30
60087;BME280;45960;53.630;55.972;2022-10-16T03:44:46;101170.88;;;9.67;70.51
60087;BME280;45960;53.630;55.972;2022-10-16T03:45:47;101161.91;;;9.68;70.35
60087;BME280;45960;53.630;55.972;2022-10-16T03:46:48;101160.03;;;9.70;70.17
60087;BME280;45960;53.630;55.972;2022-10-16T03:47:49;101159.25;;;9.68;70.27
60087;BME280;45960;53.630;55.972;2022-10-16T03:48:50;101165.22;;;9.73;70.35
60087;BME280;45960;53.630;55.972;2022-10-16T03:49:51;101170.56;;;9.73;70.29
60087;BME280;45960;53.630;55.972;2022-10-16T03:50:52;101170.56;;;9.73;70.38
60087;BME280;45960;53.630;55.972;2022-10-16T03:51:54;101166.94;;;9.74;70.39
60087;BME280;45960;53.630;55.972;2022-10-16T03:52:55;101174.03;;;9.75;70.39
60087;BME280;45960;53.630;55.972;2022-10-16T03:53:56;101177.47;;;9.77;70.23
60087;BME280;45960;53.630;55.972;2022-10-16T03:54:57;101174.03;;;9.75;70.33
60087;BME280;45960;53.630;55.972;2022-10-16T03:55:58;101163.38;;;9.75;70.31
60087;BME280;45960;53.630;55.972;2022-10-16T03:56:59;101166.03;;;9.75;70.24
60087;BME280;45960;53.630;55.972;2022-10-16T03:58:00;101172.13;;;9.77;70.28
60087;BME280;45960;53.630;55.972;2022-10-16T03:59:01;101179.22;;;9.78;70.26
60087;BME280;45960;53.630;55.972;2022-10-16T04:00:02;101178.34;;;9.77;70.48
60087;BME280;45960;53.630;55.972;2022-10-16T04:01:26;101180.66;;;9.66;70.48
60087;BME280;45960;53.630;55.972;2022-10-16T04:03:00;101172.88;;;9.61;71.05
60087;BME280;45960;53.630;55.972;2022-10-16T04:04:02;101181.53;;;9.67;70.90
60087;BME280;45960;53.630;55.972;2022-10-16T04:07:24;101186.72;;;9.51;71.48
60087;BME280;45960;53.630;55.972;2022-10-16T04:08:39;101192.00;;;9.52;71.06
60087;BME280;45960;53.630;55.972;2022-10-16T04:10:11;101185.19;;;9.45;71.13
60087;BME280;45960;53.630;55.972;2022-10-16T04:11:41;101194.16;;;9.44;71.40
60087;BME280;45960;53.630;55.972;2022-10-16T04:12:43;101185.00;;;9.50;71.44
60087;BME280;45960;53.630;55.972;2022-10-16T04:13:50;101185.84;;;9.50;71.24
60087;BME280;45960;53.630;55.972;2022-10-16T04:16:13;101194.53;;;9.35;71.73
60087;BME280;45960;53.630;55.972;2022-10-16T04:19:25;101195.50;;;9.34;71.51
60087;BME280;45960;53.630;55.972;2022-10-16T04:21:07;101204.56;;;9.30;71.97
60087;BME280;45960;53.630;55.972;2022-10-16T04:22:09;101192.69;;;9.37;71.89
60087;BME280;45960;53.630;55.972;2022-10-16T04:23:10;101200.41;;;9.43;71.65
60087;BME280;45960;53.630;55.972;2022-10-16T04:24:11;101202.00;;;9.47;71.46
60087;BME280;45960;53.630;55.972;2022-10-16T04:25:13;101207.09;;;9.52;71.38
60087;BME280;45960;53.630;55.972;2022-10-16T04:26:14;101203.59;;;9.51;71.47
60087;BME280;45960;53.630;55.972;2022-10-16T04:27:15;101205.19;;;9.55;71.47
60087;BME280;45960;53.630;55.972;2022-10-16T04:28:28;101205.34;;;9.52;71.17
60087;BME280;45960;53.630;55.972;2022-10-16T04:29:29;101206.75;;;9.59;71.40
60087;BME280;45960;53.630;55.972;2022-10-16T04:30:30;101206.72;;;9.61;71.40
60087;BME280;45960;53.630;55.972;2022-10-16T04:31:31;101210.09;;;9.64;71.20
60087;BME280;45960;53.630;55.972;2022-10-16T04:32:32;101203.94;;;9.62;71.04
60087;BME280;45960;53.630;55.972;2022-10-16T04:33:33;101204.59;;;9.68;71.03
60087;BME280;45960;53.630;55.972;2022-10-16T04:34:34;101213.41;;;9.70;71.06
60087;BME280;45960;53.630;55.972;2022-10-16T04:35:35;101216.84;;;9.72;70.80
60087;BME280;45960;53.630;55.972;2022-10-16T04:36:36;101203.81;;;9.66;70.68
60087;BME280;45960;53.630;55.972;2022-10-16T04:37:37;101210.50;;;9.74;70.63
60087;BME280;45960;53.630;55.972;2022-10-16T04:38:39;101206.06;;;9.75;70.70
60087;BME280;45960;53.630;55.972;2022-10-16T04:39:40;101213.03;;;9.77;70.62
60087;BME280;45960;53.630;55.972;2022-10-16T04:40:42;101205.91;;;9.78;70.71
60087;BME280;45960;53.630;55.972;2022-10-16T04:41:43;101221.94;;;9.78;70.65
60087;BME280;45960;53.630;55.972;2022-10-16T04:42:44;101188.88;;;9.61;70.59
60087;BME280;45960;53.630;55.972;2022-10-16T04:43:45;101225.38;;;9.80;70.38
60087;BME280;45960;53.630;55.972;2022-10-16T04:44:46;101216.75;;;9.75;70.42
60087;BME280;45960;53.630;55.972;2022-10-16T04:45:48;101232.31;;;9.84;70.50
60087;BME280;45960;53.630;55.972;2022-10-16T04:46:51;101226.03;;;9.85;70.51
60087;BME280;45960;53.630;55.972;2022-10-16T04:47:52;101219.78;;;9.86;70.52
60087;BME280;45960;53.630;55.972;2022-10-16T04:48:53;101221.47;;;9.87;70.37
60087;BME280;45960;53.630;55.972;2022-10-16T04:49:54;101217.22;;;9.83;70.16
60087;BME280;45960;53.630;55.972;2022-10-16T04:50:55;101211.97;;;9.81;70.27
60087;BME280;45960;53.630;55.972;2022-10-16T04:51:56;101202.44;;;9.76;70.33
60087;BME280;45960;53.630;55.972;2022-10-16T04:52:58;101228.41;;;9.91;70.36
60087;BME280;45960;53.630;55.972;2022-10-16T04:53:59;101231.88;;;9.93;70.22
60087;BME280;45960;53.630;55.972;2022-10-16T04:55:00;101197.97;;;9.76;70.05
60087;BME280;45960;53.630;55.972;2022-10-16T04:56:03;101195.75;;;9.67;70.12
60087;BME280;45960;53.630;55.972;2022-10-16T04:57:04;101232.72;;;9.94;70.07
60087;BME280;45960;53.630;55.972;2022-10-16T04:58:05;101232.66;;;9.95;70.07
60087;BME280;45960;53.630;55.972;2022-10-16T04:59:07;101235.34;;;9.95;70.06
60087;BME280;45960;53.630;55.972;2022-10-16T05:00:08;101235.34;;;9.95;70.10
60087;BME280;45960;53.630;55.972;2022-10-16T05:01:09;101237.06;;;9.96;70.03
60087;BME280;45960;53.630;55.972;2022-10-16T05:02:10;101242.41;;;9.96;70.04
60087;BME280;45960;53.630;55.972;2022-10-16T05:03:12;101246.00;;;9.95;70.22
60087;BME280;45960;53.630;55.972;2022-10-16T05:04:13;101247.75;;;9.96;70.20
60087;BME280;45960;53.630;55.972;2022-10-16T05:05:15;101247.75;;;9.96;70.23
60087;BME280;45960;53.630;55.972;2022-10-16T05:06:16;101243.19;;;9.98;70.08
60087;BME280;45960;53.630;55.972;2022-10-16T05:07:17;101230.16;;;9.92;70.30
60087;BME280;45960;53.630;55.972;2022-10-16T05:08:19;101235.63;;;9.89;70.26
60087;BME280;45960;53.630;55.972;2022-10-16T05:09:20;101234.69;;;9.90;70.42
60087;BME280;45960;53.630;55.972;2022-10-16T05:10:21;101248.38;;;10.01;70.37
60087;BME280;45960;53.630;55.972;2022-10-16T05:11:23;101245.72;;;10.01;70.22
60087;BME280;45960;53.630;55.972;2022-10-16T05:12:24;101244.84;;;10.01;70.12
60087;BME280;45960;53.630;55.972;2022-10-16T05:13:25;101247.44;;;10.02;70.20
60087;BME280;45960;53.630;55.972;2022-10-16T05:14:26;101236.06;;;9.99;70.30
60087;BME280;45960;53.630;55.972;2022-10-16T05:15:28;101252.66;;;10.05;70.27
60087;BME280;45960;53.630;55.972;2022-10-16T05:16:29;101250.91;;;10.04;70.36
60087;BME280;45960;53.630;55.972;2022-10-16T05:17:31;101245.56;;;10.04;70.33
60087;BME280;45960;53.630;55.972;2022-10-16T05:18:32;101217.16;;;9.84;70.26
60087;BME280;45960;53.630;55.972;2022-10-16T05:19:33;101250.75;;;10.07;70.23
60087;BME280;45960;53.630;55.972;2022-10-16T05:20:34;101248.94;;;10.08;70.07
60087;BME280;45960;53.630;55.972;2022-10-16T05:21:35;101258.63;;;10.11;70.13
60087;BME280;45960;53.630;55.972;2022-10-16T05:22:36;101248.03;;;10.09;70.12
60087;BME280;45960;53.630;55.972;2022-10-16T05:23:38;101247.19;;;10.08;70.14
60087;BME280;45960;53.630;55.972;2022-10-16T05:24:38;101252.38;;;10.12;70.12
60087;BME280;45960;53.630;55.972;2022-10-16T05:25:40;101255.81;;;10.14;70.06
60087;BME280;45960;53.630;55.972;2022-10-16T05:26:41;101255.81;;;10.14;70.04
60087;BME280;45960;53.630;55.972;2022-10-16T05:27:42;101258.47;;;10.14;70.03
60087;BME280;45960;53.630;55.972;2022-10-16T05:28:43;101242.59;;;10.11;70.25
60087;BME280;45960;53.630;55.972;2022-10-16T05:29:47;101254.94;;;10.13;69.90
60087;BME280;45960;53.630;55.972;2022-10-16T05:30:49;101245.00;;;10.17;69.70
60087;BME280;45960;53.630;55.972;2022-10-16T05:31:53;101248.69;;;10.14;69.28
60087;BME280;45960;53.630;55.972;2022-10-16T05:32:55;101251.13;;;10.19;69.24
60087;BME280;45960;53.630;55.972;2022-10-16T05:33:59;101260.13;;;10.16;69.35
60087;BME280;45960;53.630;55.972;2022-10-16T05:35:00;101260.88;;;10.20;69.31
60087;BME280;45960;53.630;55.972;2022-10-16T05:36:06;101255.81;;;10.14;69.02
60087;BME280;45960;53.630;55.972;2022-10-16T05:37:08;101260.88;;;10.20;69.20
60087;BME280;45960;53.630;55.972;2022-10-16T05:38:09;101259.06;;;10.20;68.80
60087;BME280;45960;53.630;55.972;2022-10-16T05:39:10;101266.94;;;10.23;68.71
60087;BME280;45960;53.630;55.972;2022-10-16T05:40:12;101266.06;;;10.23;68.57
60087;BME280;45960;53.630;55.972;2022-10-16T05:41:14;101258.06;;;10.23;68.60
60087;BME280;45960;53.630;55.972;2022-10-16T05:42:15;101254.38;;;10.25;68.55
60087;BME280;45960;53.630;55.972;2022-10-16T05:43:16;101254.38;;;10.25;68.59
60087;BME280;45960;53.630;55.972;2022-10-16T05:44:17;101258.81;;;10.25;68.51
60087;BME280;45960;53.630;55.972;2022-10-16T05:45:18;101258.75;;;10.28;68.46
60087;BME280;45960;53.630;55.972;2022-10-16T05:46:19;101253.47;;;10.25;68.21
60087;BME280;45960;53.630;55.972;2022-10-16T05:47:20;101257.69;;;10.30;68.01
60087;BME280;45960;53.630;55.972;2022-10-16T05:48:22;101263.03;;;10.30;67.83
60087;BME280;45960;53.630;55.972;2022-10-16T05:49:24;101254.97;;;10.32;67.88
60087;BME280;45960;53.630;55.972;2022-10-16T05:50:25;101270.84;;;10.35;67.91
60087;BME280;45960;53.630;55.972;2022-10-16T05:51:27;101260.31;;;10.32;67.75
60087;BME280;45960;53.630;55.972;2022-10-16T05:52:28;101265.50;;;10.35;67.84